sensor_id;sensor_type;location;lat;lon;timestamp;pressure;altitude;pressure_sealevel;temperature;humidity
33625;BME280;19962;47.820;1.930;2023-05-15T00:00:38;100638.28;;;14.63;80.61
33625;BME280;19962;47.820;1.930;2023-05-15T00:03:05;100647.19;;;14.70;80.32
33625;BME280;19962;47.820;1.930;2023-05-15T00:05:31;100638.03;;;14.64;80.22
33625;BME280;19962;47.820;1.930;2023-05-15T00:07:57;100639.31;;;14.57;80.40
33625;BME280;19962;47.820;1.930;2023-05-15T00:10:23;100639.81;;;14.54;80.04
33625;BME280;19962;47.820;1.930;2023-05-15T00:12:49;100642.63;;;14.59;80.59
33625;BME280;19962;47.820;1.930;2023-05-15T00:15:15;100635.94;;;14.55;80.28
33625;BME280;19962;47.820;1.930;2023-05-15T00:17:41;100639.38;;;14.62;79.86
33625;BME280;19962;47.820;1.930;2023-05-15T00:20:08;100632.50;;;14.64;80.14
33625;BME280;19962;47.820;1.930;2023-05-15T00:22:34;100628.41;;;14.67;80.19
33625;BME280;19962;47.820;1.930;2023-05-15T00:25:00;100631.59;;;14.59;79.95
33625;BME280;19962;47.820;1.930;2023-05-15T00:27:27;100623.00;;;14.55;80.27
33625;BME280;19962;47.820;1.930;2023-05-15T00:29:53;100627.75;;;14.60;80.22
33625;BME280;19962;47.820;1.930;2023-05-15T00:32:19;100628.75;;;14.54;80.19
33625;BME280;19962;47.820;1.930;2023-05-15T00:34:45;100623.75;;;14.51;80.28
33625;BME280;19962;47.820;1.930;2023-05-15T00:37:11;100620.91;;;14.46;80.57
33625;BME280;19962;47.820;1.930;2023-05-15T00:39:37;100617.75;;;14.37;80.40
33625;BME280;19962;47.820;1.930;2023-05-15T00:42:04;100611.41;;;14.37;80.67
33625;BME280;19962;47.820;1.930;2023-05-15T00:44:31;100610.22;;;14.33;80.84
33625;BME280;19962;47.820;1.930;2023-05-15T00:46:59;100614.50;;;14.24;80.91
33625;BME280;19962;47.820;1.930;2023-05-15T00:49:27;100615.41;;;14.13;81.33
33625;BME280;19962;47.820;1.930;2023-05-15T00:51:55;100607.56;;;14.21;81.09
33625;BME280;19962;47.820;1.930;2023-05-15T00:54:21;100613.09;;;14.21;81.19
33625;BME280;19962;47.820;1.930;2023-05-15T00:56:48;100612.41;;;14.31;80.91
33625;BME280;19962;47.820;1.930;2023-05-15T00:59:15;100616.59;;;14.17;80.77
33625;BME280;19962;47.820;1.930;2023-05-15T01:01:42;100622.00;;;14.12;81.21
33625;BME280;19962;47.820;1.930;2023-05-15T01:04:10;100613.75;;;14.28;80.49
33625;BME280;19962;47.820;1.930;2023-05-15T01:06:36;100611.75;;;14.24;80.72
33625;BME280;19962;47.820;1.930;2023-05-15T01:09:03;100618.25;;;14.18;80.75
33625;BME280;19962;47.820;1.930;2023-05-15T01:11:29;100613.41;;;14.25;80.54
33625;BME280;19962;47.820;1.930;2023-05-15T01:14:04;100619.22;;;14.12;80.81
33625;BME280;19962;47.820;1.930;2023-05-15T01:16:32;100620.94;;;14.13;80.71
33625;BME280;19962;47.820;1.930;2023-05-15T01:18:58;100619.59;;;14.15;80.48
33625;BME280;19962;47.820;1.930;2023-05-15T01:21:43;100623.63;;;14.08;80.82
33625;BME280;19962;47.820;1.930;2023-05-15T01:27:24;100608.88;;;14.19;80.92
33625;BME280;19962;47.820;1.930;2023-05-15T01:30:14;100606.53;;;14.11;80.23
33625;BME280;19962;47.820;1.930;2023-05-15T01:35:49;100614.25;;;14.09;80.12
33625;BME280;19962;47.820;1.930;2023-05-15T01:38:31;100608.56;;;13.99;79.80
33625;BME280;19962;47.820;1.930;2023-05-15T01:41:08;100614.25;;;13.92;80.61
33625;BME280;19962;47.820;1.930;2023-05-15T01:43:36;100609.88;;;13.80;80.81
33625;BME280;19962;47.820;1.930;2023-05-15T01:46:05;100606.47;;;13.89;80.93
33625;BME280;19962;47.820;1.930;2023-05-15T01:48:32;100606.22;;;13.91;80.66
33625;BME280;19962;47.820;1.930;2023-05-15T01:51:02;100592.84;;;13.83;80.97
33625;BME280;19962;47.820;1.930;2023-05-15T01:53:33;100599.53;;;13.87;81.12
33625;BME280;19962;47.820;1.930;2023-05-15T01:55:59;100596.84;;;13.92;81.13
33625;BME280;19962;47.820;1.930;2023-05-15T01:58:27;100605.69;;;13.94;80.51
33625;BME280;19962;47.820;1.930;2023-05-15T02:00:54;100599.69;;;13.97;80.57
33625;BME280;19962;47.820;1.930;2023-05-15T02:03:21;100597.69;;;14.09;80.53
33625;BME280;19962;47.820;1.930;2023-05-15T02:05:48;100584.63;;;14.04;79.95
33625;BME280;19962;47.820;1.930;2023-05-15T02:08:15;100589.50;;;13.97;80.18
33625;BME280;19962;47.820;1.930;2023-05-15T02:10:42;100593.84;;;13.93;80.53
33625;BME280;19962;47.820;1.930;2023-05-15T02:13:09;100587.56;;;13.98;80.45
33625;BME280;19962;47.820;1.930;2023-05-15T02:15:36;100591.50;;;14.02;80.49
33625;BME280;19962;47.820;1.930;2023-05-15T02:18:03;100589.50;;;13.97;80.10
33625;BME280;19962;47.820;1.930;2023-05-15T02:20:30;100602.53;;;13.85;80.27
33625;BME280;19962;47.820;1.930;2023-05-15T02:22:56;100594.84;;;13.71;80.68
33625;BME280;19962;47.820;1.930;2023-05-15T02:26:07;100594.91;;;13.59;80.59
33625;BME280;19962;47.820;1.930;2023-05-15T02:28:38;100593.31;;;13.63;80.76
33625;BME280;19962;47.820;1.930;2023-05-15T02:31:22;100596.31;;;13.62;80.87
33625;BME280;19962;47.820;1.930;2023-05-15T02:34:16;100594.56;;;13.56;80.70
33625;BME280;19962;47.820;1.930;2023-05-15T02:36:46;100590.66;;;13.52;80.82
33625;BME280;19962;47.820;1.930;2023-05-15T02:39:12;100597.66;;;13.43;81.12
33625;BME280;19962;47.820;1.930;2023-05-15T02:41:40;100593.00;;;13.32;81.29
33625;BME280;19962;47.820;1.930;2023-05-15T02:44:08;100585.09;;;13.35;81.32
33625;BME280;19962;47.820;1.930;2023-05-15T02:46:36;100573.41;;;13.45;81.11
33625;BME280;19962;47.820;1.930;2023-05-15T02:49:03;100574.59;;;13.49;81.00
33625;BME280;19962;47.820;1.930;2023-05-15T02:51:30;100573.50;;;13.50;80.72
33625;BME280;19962;47.820;1.930;2023-05-15T02:53:59;100578.59;;;13.41;80.81
33625;BME280;19962;47.820;1.930;2023-05-15T02:56:26;100569.75;;;13.39;80.86
33625;BME280;19962;47.820;1.930;2023-05-15T02:58:52;100571.19;;;13.58;80.48
33625;BME280;19962;47.820;1.930;2023-05-15T03:01:19;100566.25;;;13.44;80.09
33625;BME280;19962;47.820;1.930;2023-05-15T03:03:45;100570.72;;;13.33;80.57
33625;BME280;19962;47.820;1.930;2023-05-15T03:06:12;100574.28;;;13.17;80.61
33625;BME280;19962;47.820;1.930;2023-05-15T03:08:38;100569.84;;;13.16;80.95
33625;BME280;19962;47.820;1.930;2023-05-15T03:11:04;100576.53;;;13.20;80.82
33625;BME280;19962;47.820;1.930;2023-05-15T03:13:30;100573.06;;;13.25;80.71
33625;BME280;19962;47.820;1.930;2023-05-15T03:15:56;100566.94;;;13.23;80.77
33625;BME280;19962;47.820;1.930;2023-05-15T03:18:22;100567.47;;;13.20;80.49
33625;BME280;19962;47.820;1.930;2023-05-15T03:20:50;100569.69;;;13.23;80.15
33625;BME280;19962;47.820;1.930;2023-05-15T03:23:17;100561.34;;;13.18;80.09
33625;BME280;19962;47.820;1.930;2023-05-15T03:25:43;100558.81;;;13.16;80.21
33625;BME280;19962;47.820;1.930;2023-05-15T03:28:10;100559.00;;;13.10;80.43
33625;BME280;19962;47.820;1.930;2023-05-15T03:30:36;100556.69;;;13.18;80.30
33625;BME280;19962;47.820;1.930;2023-05-15T03:33:02;100556.81;;;13.12;80.01
33625;BME280;19962;47.820;1.930;2023-05-15T03:35:29;100563.34;;;13.06;80.20
33625;BME280;19962;47.820;1.930;2023-05-15T03:37:57;100563.47;;;12.99;80.75
33625;BME280;19962;47.820;1.930;2023-05-15T03:40:23;100573.16;;;13.02;80.06
33625;BME280;19962;47.820;1.930;2023-05-15T03:42:49;100566.34;;;13.04;80.46
33625;BME280;19962;47.820;1.930;2023-05-15T03:45:18;100556.69;;;13.18;79.88
33625;BME280;19962;47.820;1.930;2023-05-15T03:47:44;100566.94;;;13.23;79.74
33625;BME280;19962;47.820;1.930;2023-05-15T03:50:11;100555.88;;;13.06;79.80
33625;BME280;19962;47.820;1.930;2023-05-15T03:52:37;100552.19;;;13.01;80.23
33625;BME280;19962;47.820;1.930;2023-05-15T03:55:03;100553.13;;;13.06;79.77
33625;BME280;19962;47.820;1.930;2023-05-15T03:57:30;100558.78;;;13.00;79.86
33625;BME280;19962;47.820;1.930;2023-05-15T03:59:58;100560.22;;;12.91;79.94
33625;BME280;19962;47.820;1.930;2023-05-15T04:02:24;100562.97;;;12.91;79.70
33625;BME280;19962;47.820;1.930;2023-05-15T04:04:50;100563.50;;;12.76;79.89
33625;BME280;19962;47.820;1.930;2023-05-15T04:07:16;100570.44;;;12.90;79.93
33625;BME280;19962;47.820;1.930;2023-05-15T04:09:42;100572.44;;;12.95;79.62
33625;BME280;19962;47.820;1.930;2023-05-15T04:12:08;100563.25;;;12.78;80.33
33625;BME280;19962;47.820;1.930;2023-05-15T04:14:34;100568.34;;;13.09;79.55
33625;BME280;19962;47.820;1.930;2023-05-15T04:17:00;100568.13;;;12.99;78.91
33625;BME280;19962;47.820;1.930;2023-05-15T04:19:27;100572.09;;;12.91;79.04
33625;BME280;19962;47.820;1.930;2023-05-15T04:21:53;100566.00;;;12.78;79.58
33625;BME280;19962;47.820;1.930;2023-05-15T04:24:19;100568.19;;;12.76;79.34
33625;BME280;19962;47.820;1.930;2023-05-15T04:26:45;100569.66;;;12.67;79.33
33625;BME280;19962;47.820;1.930;2023-05-15T04:29:11;100573.59;;;12.71;79.71
33625;BME280;19962;47.820;1.930;2023-05-15T04:31:37;100579.94;;;12.60;79.63
33625;BME280;19962;47.820;1.930;2023-05-15T04:34:03;100571.78;;;12.65;79.57
33625;BME280;19962;47.820;1.930;2023-05-15T04:36:30;100568.47;;;12.63;79.86
33625;BME280;19962;47.820;1.930;2023-05-15T04:38:56;100575.16;;;12.67;79.63
33625;BME280;19962;47.820;1.930;2023-05-15T04:41:22;100574.38;;;12.94;79.36
33625;BME280;19962;47.820;1.930;2023-05-15T04:43:49;100573.84;;;13.09;78.41
33625;BME280;19962;47.820;1.930;2023-05-15T04:46:15;100570.59;;;13.12;78.29
33625;BME280;19962;47.820;1.930;2023-05-15T04:48:41;100568.47;;;13.02;78.22
33625;BME280;19962;47.820;1.930;2023-05-15T04:51:07;100581.16;;;12.92;78.51
33625;BME280;19962;47.820;1.930;2023-05-15T04:53:33;100580.94;;;12.93;78.36
33625;BME280;19962;47.820;1.930;2023-05-15T04:56:00;100583.19;;;13.08;78.67
33625;BME280;19962;47.820;1.930;2023-05-15T04:58:26;100581.72;;;13.17;78.50
33625;BME280;19962;47.820;1.930;2023-05-15T05:00:52;100583.94;;;13.31;78.13
33625;BME280;19962;47.820;1.930;2023-05-15T05:03:18;100593.72;;;13.39;78.12
33625;BME280;19962;47.820;1.930;2023-05-15T05:05:44;100591.53;;;13.41;77.55
33625;BME280;19962;47.820;1.930;2023-05-15T05:08:10;100595.31;;;13.51;77.79
33625;BME280;19962;47.820;1.930;2023-05-15T05:10:36;100596.72;;;13.54;77.46
33625;BME280;19962;47.820;1.930;2023-05-15T05:13:02;100593.56;;;13.62;77.24
33625;BME280;19962;47.820;1.930;2023-05-15T05:15:29;100594.91;;;13.76;76.60
33625;BME280;19962;47.820;1.930;2023-05-15T05:17:55;100595.00;;;13.64;76.89
33625;BME280;19962;47.820;1.930;2023-05-15T05:20:21;100605.22;;;13.64;76.68
33625;BME280;19962;47.820;1.930;2023-05-15T05:22:47;100597.34;;;13.56;77.56
33625;BME280;19962;47.820;1.930;2023-05-15T05:25:13;100602.34;;;13.59;77.83
33625;BME280;19962;47.820;1.930;2023-05-15T05:27:40;100597.81;;;13.53;78.13
33625;BME280;19962;47.820;1.930;2023-05-15T05:30:06;100586.47;;;13.49;78.08
33625;BME280;19962;47.820;1.930;2023-05-15T05:32:33;100597.03;;;13.69;77.83
33625;BME280;19962;47.820;1.930;2023-05-15T05:34:59;100597.03;;;13.69;77.40
33625;BME280;19962;47.820;1.930;2023-05-15T05:37:25;100595.50;;;13.61;77.65
33625;BME280;19962;47.820;1.930;2023-05-15T05:39:51;100597.50;;;13.66;78.08
33625;BME280;19962;47.820;1.930;2023-05-15T05:42:17;100600.44;;;13.76;77.97
33625;BME280;19962;47.820;1.930;2023-05-15T05:44:43;100596.31;;;13.62;78.34
33625;BME280;19962;47.820;1.930;2023-05-15T05:47:09;100599.84;;;13.74;78.23
33625;BME280;19962;47.820;1.930;2023-05-15T05:49:36;100604.91;;;13.49;79.58
33625;BME280;19962;47.820;1.930;2023-05-15T05:52:06;100606.56;;;13.50;80.15
33625;BME280;19962;47.820;1.930;2023-05-15T05:54:33;100601.34;;;13.65;79.26
33625;BME280;19962;47.820;1.930;2023-05-15T05:56:59;100603.09;;;13.87;78.85
33625;BME280;19962;47.820;1.930;2023-05-15T05:59:25;100609.78;;;13.91;79.04
33625;BME280;19962;47.820;1.930;2023-05-15T06:01:51;100607.13;;;13.80;79.33
33625;BME280;19962;47.820;1.930;2023-05-15T06:04:18;100611.56;;;13.97;79.07
33625;BME280;19962;47.820;1.930;2023-05-15T06:06:44;100616.97;;;13.76;79.75
33625;BME280;19962;47.820;1.930;2023-05-15T06:09:10;100614.75;;;13.89;79.73
33625;BME280;19962;47.820;1.930;2023-05-15T06:11:36;100615.56;;;13.90;79.38
33625;BME280;19962;47.820;1.930;2023-05-15T06:14:02;100620.59;;;13.93;79.73
33625;BME280;19962;47.820;1.930;2023-05-15T06:16:29;100616.47;;;13.95;79.43
33625;BME280;19962;47.820;1.930;2023-05-15T06:18:55;100617.56;;;14.11;79.07
33625;BME280;19962;47.820;1.930;2023-05-15T06:21:21;100610.81;;;14.02;79.91
33625;BME280;19962;47.820;1.930;2023-05-15T06:23:47;100618.59;;;14.05;80.18
33625;BME280;19962;47.820;1.930;2023-05-15T06:26:13;100617.56;;;14.11;79.55
33625;BME280;19962;47.820;1.930;2023-05-15T06:28:39;100615.75;;;14.16;79.54
33625;BME280;19962;47.820;1.930;2023-05-15T06:31:05;100618.09;;;14.24;78.80
33625;BME280;19962;47.820;1.930;2023-05-15T06:33:31;100612.13;;;14.16;79.65
33625;BME280;19962;47.820;1.930;2023-05-15T06:35:57;100613.22;;;14.31;79.45
33625;BME280;19962;47.820;1.930;2023-05-15T06:38:23;100623.00;;;14.39;79.21
33625;BME280;19962;47.820;1.930;2023-05-15T06:40:49;100615.81;;;14.38;78.83
33625;BME280;19962;47.820;1.930;2023-05-15T06:43:15;100612.88;;;14.44;78.57
33625;BME280;19962;47.820;1.930;2023-05-15T06:45:41;100617.41;;;14.34;79.28
33625;BME280;19962;47.820;1.930;2023-05-15T06:48:07;100631.81;;;14.19;80.33
33625;BME280;19962;47.820;1.930;2023-05-15T06:50:34;100637.50;;;14.29;80.14
33625;BME280;19962;47.820;1.930;2023-05-15T06:53:00;100630.97;;;14.35;80.10
33625;BME280;19962;47.820;1.930;2023-05-15T06:55:26;100631.09;;;14.45;79.63
33625;BME280;19962;47.820;1.930;2023-05-15T06:57:52;100639.16;;;14.14;80.97
33625;BME280;19962;47.820;1.930;2023-05-15T07:00:18;100632.84;;;14.18;81.39
33625;BME280;19962;47.820;1.930;2023-05-15T07:02:44;100630.28;;;14.12;81.99
33625;BME280;19962;47.820;1.930;2023-05-15T07:05:12;100629.63;;;14.38;80.62
33625;BME280;19962;47.820;1.930;2023-05-15T07:07:39;100630.03;;;14.46;80.10
33625;BME280;19962;47.820;1.930;2023-05-15T07:10:06;100631.47;;;14.49;79.99
33625;BME280;19962;47.820;1.930;2023-05-15T07:12:32;100640.47;;;14.44;80.27
33625;BME280;19962;47.820;1.930;2023-05-15T07:14:59;100633.13;;;14.50;79.83
33625;BME280;19962;47.820;1.930;2023-05-15T07:17:25;100637.13;;;14.59;79.67
33625;BME280;19962;47.820;1.930;2023-05-15T07:19:51;100632.75;;;14.63;79.40
33625;BME280;19962;47.820;1.930;2023-05-15T07:22:17;100634.50;;;14.69;79.44
33625;BME280;19962;47.820;1.930;2023-05-15T07:24:43;100632.91;;;14.73;79.66
33625;BME280;19962;47.820;1.930;2023-05-15T07:27:09;100639.00;;;14.75;79.72
33625;BME280;19962;47.820;1.930;2023-05-15T07:29:35;100636.09;;;14.65;80.49
33625;BME280;19962;47.820;1.930;2023-05-15T07:32:02;100631.78;;;14.52;81.66
33625;BME280;19962;47.820;1.930;2023-05-15T07:34:28;100634.50;;;14.69;81.24
33625;BME280;19962;47.820;1.930;2023-05-15T07:36:54;100629.34;;;14.56;81.67
33625;BME280;19962;47.820;1.930;2023-05-15T07:39:20;100626.44;;;14.46;82.26
33625;BME280;19962;47.820;1.930;2023-05-15T07:41:46;100631.38;;;14.44;82.40
33625;BME280;19962;47.820;1.930;2023-05-15T07:44:12;100633.06;;;14.45;82.71
33625;BME280;19962;47.820;1.930;2023-05-15T07:46:38;100631.66;;;14.64;81.64
33625;BME280;19962;47.820;1.930;2023-05-15T07:49:04;100627.88;;;14.70;81.87
33625;BME280;19962;47.820;1.930;2023-05-15T07:51:30;100623.56;;;14.79;81.37
33625;BME280;19962;47.820;1.930;2023-05-15T07:53:56;100611.59;;;14.90;80.12
33625;BME280;19962;47.820;1.930;2023-05-15T07:56:23;100611.50;;;15.06;79.80
33625;BME280;19962;47.820;1.930;2023-05-15T07:58:49;100609.16;;;15.15;79.08
33625;BME280;19962;47.820;1.930;2023-05-15T08:01:15;100616.09;;;15.17;78.74
33625;BME280;19962;47.820;1.930;2023-05-15T08:03:41;100625.00;;;15.24;78.21
33625;BME280;19962;47.820;1.930;2023-05-15T08:06:07;100612.34;;;15.07;79.26
33625;BME280;19962;47.820;1.930;2023-05-15T08:08:33;100608.50;;;15.08;79.76
33625;BME280;19962;47.820;1.930;2023-05-15T08:10:59;100608.00;;;15.11;79.71
33625;BME280;19962;47.820;1.930;2023-05-15T08:13:25;100616.69;;;15.24;79.47
33625;BME280;19962;47.820;1.930;2023-05-15T08:15:52;100606.25;;;15.26;79.06
33625;BME280;19962;47.820;1.930;2023-05-15T08:18:18;100606.69;;;15.40;78.88
33625;BME280;19962;47.820;1.930;2023-05-15T08:20:44;100602.81;;;15.19;79.86
33625;BME280;19962;47.820;1.930;2023-05-15T08:23:10;100602.19;;;14.91;81.34
33625;BME280;19962;47.820;1.930;2023-05-15T08:25:36;100592.81;;;14.92;81.71
33625;BME280;19962;47.820;1.930;2023-05-15T08:28:04;100591.25;;;15.01;82.17
33625;BME280;19962;47.820;1.930;2023-05-15T08:30:30;100596.53;;;15.24;81.08
33625;BME280;19962;47.820;1.930;2023-05-15T08:32:56;100592.97;;;15.28;80.63
33625;BME280;19962;47.820;1.930;2023-05-15T08:35:22;100595.31;;;15.36;80.23
33625;BME280;19962;47.820;1.930;2023-05-15T08:37:48;100583.19;;;15.42;80.33
33625;BME280;19962;47.820;1.930;2023-05-15T08:40:15;100580.53;;;15.52;79.54
33625;BME280;19962;47.820;1.930;2023-05-15T08:42:48;100585.09;;;15.63;79.47
33625;BME280;19962;47.820;1.930;2023-05-15T08:45:18;100583.72;;;15.66;79.30
33625;BME280;19962;47.820;1.930;2023-05-15T08:47:45;100587.94;;;15.73;78.51
33625;BME280;19962;47.820;1.930;2023-05-15T08:50:13;100589.38;;;15.81;78.54
33625;BME280;19962;47.820;1.930;2023-05-15T08:52:41;100592.13;;;15.81;78.10
33625;BME280;19962;47.820;1.930;2023-05-15T08:55:08;100593.00;;;15.81;78.29
33625;BME280;19962;47.820;1.930;2023-05-15T08:57:36;100594.13;;;15.85;77.80
33625;BME280;19962;47.820;1.930;2023-05-15T09:00:04;100592.25;;;15.91;78.21
33625;BME280;19962;47.820;1.930;2023-05-15T09:02:37;100598.81;;;15.85;78.35
33625;BME280;19962;47.820;1.930;2023-05-15T09:05:04;100600.94;;;15.73;78.56
33625;BME280;19962;47.820;1.930;2023-05-15T09:07:31;100603.13;;;15.71;78.56
33625;BME280;19962;47.820;1.930;2023-05-15T09:09:58;100593.13;;;15.65;78.83
33625;BME280;19962;47.820;1.930;2023-05-15T09:12:26;100595.38;;;15.41;80.18
33625;BME280;19962;47.820;1.930;2023-05-15T09:15:14;100606.25;;;15.53;80.69
33625;BME280;19962;47.820;1.930;2023-05-15T09:17:42;100599.84;;;15.47;80.57
33625;BME280;19962;47.820;1.930;2023-05-15T09:20:34;100605.28;;;15.64;80.39
33625;BME280;19962;47.820;1.930;2023-05-15T09:23:03;100597.81;;;15.64;80.53
33625;BME280;19962;47.820;1.930;2023-05-15T09:25:42;100600.81;;;15.63;80.23
33625;BME280;19962;47.820;1.930;2023-05-15T09:28:32;100609.91;;;15.58;81.13
33625;BME280;19962;47.820;1.930;2023-05-15T09:31:00;100612.78;;;15.68;80.28
33625;BME280;19962;47.820;1.930;2023-05-15T09:33:30;100606.34;;;15.63;80.30
33625;BME280;19962;47.820;1.930;2023-05-15T09:35:57;100609.28;;;15.51;81.04
33625;BME280;19962;47.820;1.930;2023-05-15T09:38:23;100606.25;;;15.53;81.29
33625;BME280;19962;47.820;1.930;2023-05-15T09:40:49;100610.53;;;15.65;81.12
33625;BME280;19962;47.820;1.930;2023-05-15T09:43:15;100614.81;;;15.78;79.93
33625;BME280;19962;47.820;1.930;2023-05-15T09:45:41;100619.28;;;15.84;79.62
33625;BME280;19962;47.820;1.930;2023-05-15T09:48:08;100620.44;;;15.88;79.47
33625;BME280;19962;47.820;1.930;2023-05-15T09:50:37;100617.19;;;15.96;79.10
33625;BME280;19962;47.820;1.930;2023-05-15T09:53:05;100619.75;;;16.02;78.58
33625;BME280;19962;47.820;1.930;2023-05-15T09:55:35;100611.78;;;16.11;78.26
33625;BME280;19962;47.820;1.930;2023-05-15T09:58:09;100617.94;;;16.18;78.70
33625;BME280;19962;47.820;1.930;2023-05-15T10:00:37;100619.56;;;16.14;79.11
33625;BME280;19962;47.820;1.930;2023-05-15T10:03:05;100616.72;;;16.04;79.00
33625;BME280;19962;47.820;1.930;2023-05-15T10:05:31;100608.47;;;15.82;80.36
33625;BME280;19962;47.820;1.930;2023-05-15T10:07:58;100607.38;;;15.83;80.37
33625;BME280;19962;47.820;1.930;2023-05-15T10:10:26;100604.47;;;15.95;80.10
33625;BME280;19962;47.820;1.930;2023-05-15T10:12:54;100606.19;;;16.06;79.38
33625;BME280;19962;47.820;1.930;2023-05-15T10:15:22;100610.97;;;16.10;79.68
33625;BME280;19962;47.820;1.930;2023-05-15T10:17:49;100603.41;;;16.01;79.65
33625;BME280;19962;47.820;1.930;2023-05-15T10:20:16;100606.19;;;16.06;79.62
33625;BME280;19962;47.820;1.930;2023-05-15T10:22:49;100603.47;;;16.11;78.84
33625;BME280;19962;47.820;1.930;2023-05-15T10:27:51;100601.22;;;16.08;78.81
33625;BME280;19962;47.820;1.930;2023-05-15T10:30:18;100604.53;;;16.05;79.45
33625;BME280;19962;47.820;1.930;2023-05-15T10:32:44;100601.81;;;16.10;79.00
33625;BME280;19962;47.820;1.930;2023-05-15T10:35:11;100605.75;;;16.19;78.65
33625;BME280;19962;47.820;1.930;2023-05-15T10:37:40;100599.69;;;16.22;78.91
33625;BME280;19962;47.820;1.930;2023-05-15T10:40:09;100599.63;;;16.17;79.45
33625;BME280;19962;47.820;1.930;2023-05-15T10:42:42;100594.97;;;16.22;79.26
33625;BME280;19962;47.820;1.930;2023-05-15T10:45:09;100592.25;;;16.27;79.30
33625;BME280;19962;47.820;1.930;2023-05-15T10:47:37;100592.63;;;16.04;80.24
33625;BME280;19962;47.820;1.930;2023-05-15T10:50:04;100594.66;;;16.14;80.19
33625;BME280;19962;47.820;1.930;2023-05-15T10:52:32;100600.22;;;16.19;79.60
33625;BME280;19962;47.820;1.930;2023-05-15T10:54:58;100594.16;;;16.22;79.18
33625;BME280;19962;47.820;1.930;2023-05-15T10:57:27;100591.38;;;16.22;79.09
33625;BME280;19962;47.820;1.930;2023-05-15T10:59:53;100592.25;;;16.27;78.88
33625;BME280;19962;47.820;1.930;2023-05-15T11:02:25;100584.78;;;16.28;79.71
33625;BME280;19962;47.820;1.930;2023-05-15T11:05:02;100579.13;;;16.49;79.96
33625;BME280;19962;47.820;1.930;2023-05-15T11:07:28;100574.44;;;16.55;79.67
33625;BME280;19962;47.820;1.930;2023-05-15T11:09:55;100566.81;;;16.77;78.90
33625;BME280;19962;47.820;1.930;2023-05-15T11:12:22;100569.13;;;17.05;78.16
33625;BME280;19962;47.820;1.930;2023-05-15T11:17:23;100554.47;;;17.14;76.26
33625;BME280;19962;47.820;1.930;2023-05-15T11:22:33;100544.78;;;17.22;76.70
33625;BME280;19962;47.820;1.930;2023-05-15T11:25:05;100554.59;;;17.45;75.19
33625;BME280;19962;47.820;1.930;2023-05-15T11:27:44;100550.69;;;17.56;74.93
33625;BME280;19962;47.820;1.930;2023-05-15T11:30:20;100552.13;;;17.73;74.35
33625;BME280;19962;47.820;1.930;2023-05-15T11:37:51;100547.13;;;17.75;74.33
33625;BME280;19962;47.820;1.930;2023-05-15T11:40:29;100555.72;;;17.64;74.46
33625;BME280;19962;47.820;1.930;2023-05-15T11:43:16;100547.38;;;17.64;74.33
33625;BME280;19962;47.820;1.930;2023-05-15T11:45:44;100548.78;;;17.61;74.59
33625;BME280;19962;47.820;1.930;2023-05-15T11:48:16;100545.69;;;17.52;75.01
33625;BME280;19962;47.820;1.930;2023-05-15T11:50:43;100543.22;;;17.71;73.99
33625;BME280;19962;47.820;1.930;2023-05-15T11:53:10;100545.16;;;17.96;73.66
33625;BME280;19962;47.820;1.930;2023-05-15T11:55:40;100529.88;;;17.98;73.37
33625;BME280;19962;47.820;1.930;2023-05-15T11:58:11;100526.00;;;18.09;73.14
33625;BME280;19962;47.820;1.930;2023-05-15T12:00:39;100523.78;;;18.11;72.83
33625;BME280;19962;47.820;1.930;2023-05-15T12:03:05;100529.31;;;18.11;73.18
33625;BME280;19962;47.820;1.930;2023-05-15T12:05:31;100524.59;;;18.22;73.05
33625;BME280;19962;47.820;1.930;2023-05-15T12:07:58;100518.47;;;18.20;72.51
33625;BME280;19962;47.820;1.930;2023-05-15T12:10:25;100516.25;;;18.22;72.44
33625;BME280;19962;47.820;1.930;2023-05-15T12:12:51;100512.09;;;18.24;72.29
33625;BME280;19962;47.820;1.930;2023-05-15T12:15:18;100522.91;;;18.31;72.06
33625;BME280;19962;47.820;1.930;2023-05-15T12:17:45;100511.25;;;18.39;71.79
33625;BME280;19962;47.820;1.930;2023-05-15T12:20:15;100516.22;;;18.47;71.65
33625;BME280;19962;47.820;1.930;2023-05-15T12:22:42;100510.91;;;18.55;71.52
33625;BME280;19962;47.820;1.930;2023-05-15T12:25:10;100515.38;;;18.51;70.66
33625;BME280;19962;47.820;1.930;2023-05-15T12:27:37;100513.44;;;18.52;71.23
33625;BME280;19962;47.820;1.930;2023-05-15T12:30:04;100519.22;;;18.60;71.23
33625;BME280;19962;47.820;1.930;2023-05-15T12:32:35;100508.09;;;18.65;70.72
33625;BME280;19962;47.820;1.930;2023-05-15T12:35:02;100506.44;;;18.64;70.68
33625;BME280;19962;47.820;1.930;2023-05-15T12:37:31;100502.53;;;18.65;70.15
33625;BME280;19962;47.820;1.930;2023-05-15T12:40:03;100507.53;;;18.68;69.97
33625;BME280;19962;47.820;1.930;2023-05-15T12:42:43;100510.00;;;18.75;69.00
33625;BME280;19962;47.820;1.930;2023-05-15T12:47:40;100485.81;;;18.80;68.98
33625;BME280;19962;47.820;1.930;2023-05-15T12:50:21;100498.28;;;18.88;68.43
33625;BME280;19962;47.820;1.930;2023-05-15T12:52:52;100505.47;;;18.94;68.23
33625;BME280;19962;47.820;1.930;2023-05-15T12:55:25;100496.28;;;18.93;68.39
33625;BME280;19962;47.820;1.930;2023-05-15T12:57:54;100492.34;;;19.04;67.91
33625;BME280;19962;47.820;1.930;2023-05-15T13:00:22;100496.69;;;19.15;67.55
33625;BME280;19962;47.820;1.930;2023-05-15T13:02:58;100496.13;;;19.23;66.79
33625;BME280;19962;47.820;1.930;2023-05-15T13:05:31;100492.75;;;19.31;66.20
33625;BME280;19962;47.820;1.930;2023-05-15T13:07:59;100497.22;;;19.27;66.08
33625;BME280;19962;47.820;1.930;2023-05-15T13:10:25;100501.22;;;19.06;66.65
33625;BME280;19962;47.820;1.930;2023-05-15T13:12:53;100503.47;;;19.04;66.99
33625;BME280;19962;47.820;1.930;2023-05-15T13:20:50;100505.44;;;19.42;66.63